SHT21B EGJB-EGLL
Flight info
| Callsign | SHT21B |
|---|---|
| Flight time | N/A |
| Altitude | 19000 |
| Route | ORIST L982 ROXOG |
| Aircraft | A319/M-SDE3FGHIRWY/LB1 |
Departure
| Time | 2026-05-07 16:18 |
|---|---|
| Airport | Guernsey Airport (EGJB) |
Arrival
| Time | N/A |
|---|---|
| Airport | London Heathrow Airport (EGLL) |
| Time | Latitude | Longitude | Altitude | Speed | Heading |
|---|---|---|---|---|---|
| 2026-05-07 15:47 | 49.43260 | -2.59688 | 345 ft | 0 kts | 177° |
| 2026-05-07 16:08 | 49.43265 | -2.59688 | 344 ft | 4 kts | 177° |
| 2026-05-07 16:09 | 49.43292 | -2.59690 | 344 ft | 4 kts | 179° |
| 2026-05-07 16:09 | 49.43319 | -2.59690 | 345 ft | 4 kts | 184° |
| 2026-05-07 16:09 | 49.43346 | -2.59684 | 345 ft | 4 kts | 202° |
| 2026-05-07 16:09 | 49.43362 | -2.59666 | 355 ft | 1 kts | 267° |
| 2026-05-07 16:10 | 49.43362 | -2.59665 | 355 ft | 0 kts | 267° |
| 2026-05-07 16:13 | 49.43361 | -2.59681 | 348 ft | 3 kts | 267° |
| 2026-05-07 16:13 | 49.43358 | -2.59732 | 345 ft | 7 kts | 257° |
| 2026-05-07 16:13 | 49.43347 | -2.59818 | 344 ft | 10 kts | 264° |
| 2026-05-07 16:14 | 49.43343 | -2.59943 | 344 ft | 13 kts | 268° |
| 2026-05-07 16:14 | 49.43338 | -2.60107 | 348 ft | 18 kts | 266° |
| 2026-05-07 16:14 | 49.43332 | -2.60328 | 336 ft | 23 kts | 267° |
| 2026-05-07 16:14 | 49.43326 | -2.60576 | 329 ft | 20 kts | 272° |
| 2026-05-07 16:15 | 49.43350 | -2.60810 | 325 ft | 25 kts | 279° |
| 2026-05-07 16:15 | 49.43363 | -2.61049 | 320 ft | 16 kts | 267° |
| 2026-05-07 16:15 | 49.43358 | -2.61221 | 316 ft | 12 kts | 271° |
| 2026-05-07 16:15 | 49.43359 | -2.61229 | 316 ft | 0 kts | 274° |
| 2026-05-07 16:16 | 49.43366 | -2.61258 | 315 ft | 7 kts | 300° |
| 2026-05-07 16:17 | 49.43417 | -2.61345 | 313 ft | 14 kts | 325° |
| 2026-05-07 16:17 | 49.43465 | -2.61295 | 314 ft | 6 kts | 86° |
| 2026-05-07 16:17 | 49.43466 | -2.61283 | 314 ft | 10 kts | 86° |
| 2026-05-07 16:17 | 49.43482 | -2.60688 | 327 ft | 99 kts | 88° |
| 2026-05-07 16:18 | 49.43520 | -2.59296 | 573 ft | 143 kts | 89° |
| 2026-05-07 16:18 | 49.43565 | -2.57751 | 1342 ft | 147 kts | 90° |
| 2026-05-07 16:18 | 49.43607 | -2.56153 | 1960 ft | 156 kts | 91° |
| 2026-05-07 16:18 | 49.43653 | -2.54372 | 2358 ft | 178 kts | 90° |
| 2026-05-07 16:19 | 49.43706 | -2.52336 | 2733 ft | 203 kts | 90° |
| 2026-05-07 16:19 | 49.43988 | -2.50151 | 3120 ft | 218 kts | 63° |
| 2026-05-07 16:19 | 49.45113 | -2.48592 | 3510 ft | 226 kts | 23° |
| 2026-05-07 16:19 | 49.46640 | -2.47932 | 3955 ft | 231 kts | 14° |
| 2026-05-07 16:20 | 49.48197 | -2.47352 | 4392 ft | 233 kts | 14° |
| 2026-05-07 16:20 | 49.49866 | -2.46731 | 4799 ft | 262 kts | 14° |
| 2026-05-07 16:20 | 49.51684 | -2.46053 | 5202 ft | 273 kts | 14° |
| 2026-05-07 16:20 | 49.53547 | -2.45351 | 5639 ft | 277 kts | 14° |
| 2026-05-07 16:21 | 49.55430 | -2.44638 | 6086 ft | 280 kts | 14° |
| 2026-05-07 16:21 | 49.57301 | -2.43929 | 6518 ft | 282 kts | 14° |
| 2026-05-07 16:21 | 49.59214 | -2.43202 | 6957 ft | 284 kts | 14° |
| 2026-05-07 16:21 | 49.61142 | -2.42466 | 7387 ft | 287 kts | 14° |
| 2026-05-07 16:22 | 49.63102 | -2.41719 | 7986 ft | 291 kts | 14° |
| 2026-05-07 16:22 | 49.65069 | -2.40967 | 8508 ft | 292 kts | 14° |
| 2026-05-07 16:22 | 49.67047 | -2.40205 | 9033 ft | 294 kts | 14° |
| 2026-05-07 16:22 | 49.69023 | -2.39339 | 9571 ft | 297 kts | 22° |
| 2026-05-07 16:23 | 49.70805 | -2.37723 | 10096 ft | 300 kts | 40° |
| 2026-05-07 16:23 | 49.72252 | -2.35372 | 10579 ft | 309 kts | 51° |
| 2026-05-07 16:23 | 49.73693 | -2.32737 | 10899 ft | 333 kts | 50° |
| 2026-05-07 16:23 | 49.75225 | -2.29950 | 11497 ft | 344 kts | 50° |
| 2026-05-07 16:24 | 49.76791 | -2.27109 | 12299 ft | 349 kts | 50° |
| 2026-05-07 16:24 | 49.78374 | -2.24230 | 13116 ft | 353 kts | 50° |
| 2026-05-07 16:24 | 49.79973 | -2.21318 | 13911 ft | 357 kts | 49° |
| 2026-05-07 16:24 | 49.81593 | -2.18364 | 14618 ft | 362 kts | 50° |
| 2026-05-07 16:25 | 49.83228 | -2.15375 | 15324 ft | 365 kts | 50° |
| 2026-05-07 16:25 | 49.84878 | -2.12355 | 16044 ft | 369 kts | 50° |
| 2026-05-07 16:25 | 49.86545 | -2.09302 | 16747 ft | 373 kts | 49° |
| 2026-05-07 16:25 | 49.88232 | -2.06211 | 17432 ft | 377 kts | 49° |